createdAt,value
2018-10-09T00:00:39.763Z,4.90
2018-10-09T00:01:39.538Z,4.80
2018-10-09T00:02:39.512Z,4.80
2018-10-09T00:03:39.491Z,4.10
2018-10-09T00:04:39.755Z,4.80
2018-10-09T00:05:39.431Z,4.30
2018-10-09T00:06:39.384Z,4.70
2018-10-09T00:07:39.562Z,4.80
2018-10-09T00:08:39.546Z,4.50
2018-10-09T00:09:39.381Z,4.50
2018-10-09T00:10:39.263Z,4.70
2018-10-09T00:11:39.508Z,4.00
2018-10-09T00:12:39.219Z,4.20
2018-10-09T00:13:39.191Z,4.40
2018-10-09T00:14:39.148Z,4.40
2018-10-09T00:15:39.121Z,4.50
2018-10-09T00:16:39.119Z,4.70
2018-10-09T00:17:39.366Z,4.80
2018-10-09T00:18:39.048Z,4.50
2018-10-09T00:19:39.003Z,4.90
2018-10-09T00:20:38.969Z,5.00
2018-10-09T00:21:38.951Z,4.50
2018-10-09T00:22:38.928Z,4.40
2018-10-09T00:23:39.230Z,4.40
2018-10-09T00:24:38.862Z,4.80
2018-10-09T00:25:38.825Z,4.60
2018-10-09T00:26:38.795Z,4.40
2018-10-09T00:27:38.781Z,3.90
2018-10-09T00:28:38.751Z,4.80
2018-10-09T00:30:38.698Z,3.40
2018-10-09T00:31:38.873Z,4.30
2018-10-09T00:32:38.606Z,3.60
2018-10-09T00:33:38.596Z,4.10
2018-10-09T00:34:38.737Z,3.70
2018-10-09T00:35:38.535Z,3.70
2018-10-09T00:36:38.506Z,4.20
2018-10-09T00:37:38.478Z,3.70
2018-10-09T00:38:38.453Z,3.80
2018-10-09T00:39:38.406Z,3.50
2018-10-09T00:40:38.401Z,3.70
2018-10-09T00:41:38.355Z,23.70
2018-10-09T00:42:38.343Z,45.30
2018-10-09T00:43:38.301Z,16.10
2018-10-09T00:44:38.267Z,11.10
2018-10-09T00:45:38.437Z,6.60
2018-10-09T00:46:38.207Z,5.90
2018-10-09T00:47:38.191Z,5.90
2018-10-09T00:48:38.144Z,5.10
2018-10-09T00:49:38.137Z,5.40
2018-10-09T00:50:38.076Z,5.00
2018-10-09T00:51:38.203Z,4.80
2018-10-09T00:52:38.018Z,4.70
2018-10-09T00:53:38.217Z,4.60
2018-10-09T00:54:38.195Z,4.20
2018-10-09T00:55:37.917Z,4.20
2018-10-09T00:56:37.920Z,4.20
2018-10-09T00:57:37.961Z,3.80
2018-10-09T00:58:37.868Z,4.70
2018-10-09T00:59:38.014Z,4.60
2018-10-09T01:00:37.894Z,4.30
2018-10-09T01:01:37.753Z,4.60
2018-10-09T01:02:37.709Z,4.30
2018-10-09T01:03:37.988Z,3.80
2018-10-09T01:04:37.747Z,3.60
2018-10-09T01:05:37.623Z,4.20
2018-10-09T01:06:37.595Z,4.10
2018-10-09T01:07:37.875Z,3.70
2018-10-09T01:08:37.632Z,3.40
2018-10-09T01:09:37.549Z,3.70
2018-10-09T01:10:37.477Z,3.80
2018-10-09T01:11:37.463Z,3.40
2018-10-09T01:12:37.428Z,3.80
2018-10-09T01:13:37.390Z,4.00
2018-10-09T01:14:37.363Z,4.20
2018-10-09T01:15:37.333Z,3.40
2018-10-09T01:16:37.319Z,3.60
2018-10-09T01:17:37.262Z,3.80
2018-10-09T01:18:37.271Z,3.60
2018-10-09T01:19:37.216Z,3.80
2018-10-09T01:20:37.180Z,3.30
2018-10-09T01:21:37.164Z,4.00
2018-10-09T01:22:37.138Z,4.10
2018-10-09T01:23:37.092Z,4.60
2018-10-09T01:24:37.119Z,3.80
2018-10-09T01:25:37.048Z,3.50
2018-10-09T01:26:37.004Z,4.10
2018-10-09T01:27:36.985Z,3.80
2018-10-09T01:28:36.948Z,3.70
2018-10-09T01:29:36.916Z,3.90
2018-10-09T01:30:36.873Z,4.10
2018-10-09T01:31:36.877Z,3.80
2018-10-09T01:32:36.905Z,4.00
2018-10-09T01:33:36.774Z,3.80
2018-10-09T01:34:36.773Z,4.10
2018-10-09T01:35:36.735Z,3.70
2018-10-09T01:36:36.700Z,3.80
2018-10-09T01:37:36.676Z,3.70
2018-10-09T01:38:36.650Z,4.20
2018-10-09T01:39:36.731Z,4.10
2018-10-09T01:40:36.575Z,3.90
2018-10-09T01:41:36.557Z,4.00
2018-10-09T01:42:36.529Z,4.40
2018-10-09T01:43:36.492Z,3.80
2018-10-09T01:44:36.454Z,4.70
2018-10-09T01:45:36.412Z,4.80
2018-10-09T01:46:36.392Z,4.40
2018-10-09T01:47:36.361Z,4.10
2018-10-09T01:48:36.330Z,4.40
2018-10-09T01:49:36.316Z,4.40
2018-10-09T01:50:36.472Z,4.70
2018-10-09T01:51:36.277Z,4.40
2018-10-09T01:52:36.208Z,4.90
2018-10-09T01:53:36.188Z,4.60
2018-10-09T01:54:36.158Z,4.00
2018-10-09T01:55:36.140Z,4.70
2018-10-09T01:56:36.551Z,4.60
2018-10-09T01:57:36.066Z,4.10
2018-10-09T01:58:36.048Z,4.00
2018-10-09T01:59:35.995Z,4.30
2018-10-09T02:00:35.985Z,4.20
2018-10-09T02:01:35.949Z,4.80
2018-10-09T02:02:36.252Z,4.10
2018-10-09T02:03:35.883Z,4.50
2018-10-09T02:04:35.867Z,4.50
2018-10-09T02:05:35.810Z,4.50
2018-10-09T02:06:35.797Z,4.50
2018-10-09T02:07:35.750Z,4.50
2018-10-09T02:08:35.783Z,4.50
2018-10-09T02:09:35.704Z,4.40
2018-10-09T02:10:35.676Z,4.60
2018-10-09T02:11:35.647Z,4.20
2018-10-09T02:12:35.610Z,4.20
2018-10-09T02:13:35.920Z,4.20
2018-10-09T02:14:35.555Z,5.00
2018-10-09T02:15:35.523Z,5.20
2018-10-09T02:16:35.479Z,4.20
2018-10-09T02:17:35.446Z,4.20
2018-10-09T02:18:35.484Z,4.30
2018-10-09T02:19:35.398Z,4.20
2018-10-09T02:20:35.384Z,4.10
2018-10-09T02:21:35.321Z,4.10
2018-10-09T02:22:35.298Z,4.00
2018-10-09T02:23:35.276Z,4.30
2018-10-09T02:24:35.442Z,3.90
2018-10-09T02:25:35.221Z,4.00
2018-10-09T02:26:35.189Z,4.00
2018-10-09T02:27:35.140Z,3.80
2018-10-09T02:28:35.124Z,4.30
2018-10-09T02:29:35.099Z,4.10
2018-10-09T02:30:35.354Z,3.60
2018-10-09T02:31:35.037Z,3.80
2018-10-09T02:32:35.017Z,4.30
2018-10-09T02:33:34.972Z,3.70
2018-10-09T02:34:34.980Z,4.50
2018-10-09T02:35:34.909Z,3.80
2018-10-09T02:36:34.877Z,4.40
2018-10-09T02:37:34.851Z,4.10
2018-10-09T02:38:34.819Z,4.30
2018-10-09T02:39:34.793Z,4.20
2018-10-09T02:40:34.763Z,4.20
2018-10-09T02:41:34.728Z,4.50
2018-10-09T02:42:34.683Z,4.70
2018-10-09T02:43:34.677Z,4.00
2018-10-09T02:44:34.641Z,4.60
2018-10-09T02:45:34.603Z,4.50
2018-10-09T02:46:34.715Z,4.40
2018-10-09T02:47:34.546Z,4.30
2018-10-09T02:48:34.519Z,4.10
2018-10-09T02:49:34.471Z,3.70
2018-10-09T02:50:34.453Z,3.90
2018-10-09T02:51:34.541Z,4.60
2018-10-09T02:52:34.381Z,4.40
2018-10-09T02:53:34.391Z,3.90
2018-10-09T02:54:34.317Z,4.50
2018-10-09T02:55:34.310Z,4.10
2018-10-09T02:56:34.254Z,4.50
2018-10-09T02:57:34.573Z,4.00
2018-10-09T02:58:34.209Z,4.40
2018-10-09T02:59:34.183Z,4.70
2018-10-09T03:00:34.153Z,4.70
2018-10-09T03:01:34.120Z,4.40
2018-10-09T03:02:34.086Z,3.70
2018-10-09T03:03:34.260Z,4.00
2018-10-09T03:04:34.030Z,4.30
2018-10-09T03:05:33.991Z,4.50
2018-10-09T03:06:34.104Z,4.10
2018-10-09T03:07:33.947Z,4.70
2018-10-09T03:08:33.919Z,4.10
2018-10-09T03:09:33.881Z,4.40
2018-10-09T03:10:33.831Z,4.80
2018-10-09T03:11:33.816Z,4.90
2018-10-09T03:12:33.799Z,5.00
2018-10-09T03:13:33.750Z,5.30
2018-10-09T03:15:33.688Z,4.80
2018-10-09T03:16:33.646Z,5.10
2018-10-09T03:17:33.694Z,4.60
2018-10-09T03:18:33.618Z,4.00
2018-10-09T03:19:33.569Z,4.70
2018-10-09T03:20:33.589Z,4.60
2018-10-09T03:21:33.507Z,4.30
2018-10-09T03:22:33.457Z,4.20
2018-10-09T03:23:33.426Z,4.30
2018-10-09T03:24:33.399Z,4.70
2018-10-09T03:25:33.736Z,4.80
2018-10-09T03:26:33.335Z,5.40
2018-10-09T03:27:33.322Z,5.80
2018-10-09T03:28:33.284Z,5.10
2018-10-09T03:29:33.258Z,5.30
2018-10-09T03:30:33.224Z,5.80
2018-10-09T03:31:33.391Z,5.10
2018-10-09T03:32:33.167Z,6.00
2018-10-09T03:33:33.116Z,5.30
2018-10-09T03:34:33.093Z,4.90
2018-10-09T03:35:33.077Z,5.20
2018-10-09T03:36:33.032Z,4.90
2018-10-09T03:37:33.195Z,4.50
2018-10-09T03:38:32.966Z,4.80
2018-10-09T03:39:32.932Z,4.00
2018-10-09T03:40:32.901Z,4.80
2018-10-09T03:41:32.872Z,4.70
2018-10-09T03:42:32.859Z,4.10
2018-10-09T03:43:32.823Z,4.90
2018-10-09T03:44:32.789Z,4.60
2018-10-09T03:45:32.760Z,4.60
2018-10-09T03:46:42.986Z,4.30
2018-10-09T03:47:32.681Z,3.90
2018-10-09T03:48:32.881Z,4.80
2018-10-09T03:49:32.635Z,4.00
2018-10-09T03:50:32.596Z,4.70
2018-10-09T03:51:32.582Z,4.50
2018-10-09T03:52:32.540Z,4.20
2018-10-09T03:53:32.778Z,4.30
2018-10-09T03:54:32.483Z,4.90
2018-10-09T03:55:32.436Z,4.50
2018-10-09T03:56:32.407Z,4.10
2018-10-09T03:57:32.378Z,4.40
2018-10-09T03:58:32.355Z,4.10
2018-10-09T03:59:32.658Z,4.50
2018-10-09T04:00:32.304Z,4.30
2018-10-09T04:01:32.246Z,4.20
2018-10-09T04:02:32.229Z,3.90
2018-10-09T04:03:32.200Z,4.70
2018-10-09T04:04:32.168Z,4.60
2018-10-09T04:05:32.325Z,4.30
2018-10-09T04:06:32.113Z,4.70
2018-10-09T04:07:32.073Z,4.00
2018-10-09T04:08:32.047Z,4.50
2018-10-09T04:09:32.082Z,4.70
2018-10-09T04:10:32.017Z,4.90
2018-10-09T04:11:31.956Z,4.10
2018-10-09T04:12:31.953Z,4.10
2018-10-09T04:13:31.895Z,4.40
2018-10-09T04:14:31.866Z,4.50
2018-10-09T04:15:31.823Z,4.40
2018-10-09T04:16:31.786Z,4.10
2018-10-09T04:17:31.763Z,4.00
2018-10-09T04:18:31.723Z,4.50
2018-10-09T04:19:31.753Z,4.80
2018-10-09T04:20:31.657Z,4.90
2018-10-09T04:21:31.648Z,4.20
2018-10-09T04:22:31.612Z,4.10
2018-10-09T04:23:31.592Z,4.20
2018-10-09T04:24:31.545Z,4.30
2018-10-09T04:25:31.504Z,4.70
2018-10-09T04:26:31.474Z,4.20
2018-10-09T04:27:31.438Z,4.60
2018-10-09T04:28:31.413Z,4.90
2018-10-09T04:29:31.469Z,4.20
2018-10-09T04:30:31.343Z,4.40
2018-10-09T04:31:31.465Z,4.10
2018-10-09T04:32:31.297Z,4.50
2018-10-09T04:33:31.276Z,4.60
2018-10-09T04:34:31.233Z,4.40
2018-10-09T04:35:31.247Z,4.50
2018-10-09T04:36:31.223Z,4.20
2018-10-09T04:37:31.289Z,4.40
2018-10-09T04:38:31.093Z,4.20
2018-10-09T04:39:31.072Z,4.80
2018-10-09T04:40:31.043Z,4.30
2018-10-09T04:41:31.042Z,4.00
2018-10-09T04:42:31.040Z,4.30
2018-10-09T04:43:30.995Z,4.20
2018-10-09T04:44:30.931Z,4.40
2018-10-09T04:45:30.941Z,4.20
2018-10-09T04:46:30.853Z,4.00
2018-10-09T04:47:30.821Z,4.70
2018-10-09T04:48:30.781Z,4.10
2018-10-09T04:49:30.801Z,4.20
2018-10-09T04:50:30.738Z,4.30
2018-10-09T04:51:30.691Z,4.40
2018-10-09T04:52:30.685Z,4.40
2018-10-09T04:53:30.884Z,4.20
2018-10-09T04:54:30.612Z,4.40
2018-10-09T04:55:30.565Z,4.90
2018-10-09T04:56:30.574Z,4.50
2018-10-09T04:57:30.518Z,4.10
2018-10-09T04:58:30.476Z,4.50
2018-10-09T04:59:30.512Z,4.40
2018-10-09T05:00:30.446Z,4.50
2018-10-09T05:01:30.379Z,4.40
2018-10-09T05:02:30.372Z,4.00
2018-10-09T05:03:30.321Z,4.40
2018-10-09T05:04:30.304Z,4.70
2018-10-09T05:05:30.292Z,4.80
2018-10-09T05:06:30.305Z,4.50
2018-10-09T05:07:30.209Z,4.40
2018-10-09T05:08:30.182Z,4.70
2018-10-09T05:09:30.142Z,5.00
2018-10-09T05:10:30.098Z,4.60
2018-10-09T05:11:30.095Z,4.10
2018-10-09T05:12:30.051Z,4.40
2018-10-09T05:13:30.016Z,4.70
2018-10-09T05:14:29.986Z,4.40
2018-10-09T05:15:29.958Z,5.50
2018-10-09T05:16:29.908Z,4.30
2018-10-09T05:17:29.892Z,4.50
2018-10-09T05:18:30.023Z,5.00
2018-10-09T05:19:29.825Z,4.90
2018-10-09T05:20:29.788Z,4.70
2018-10-09T05:21:29.780Z,4.40
2018-10-09T05:22:29.725Z,4.10
2018-10-09T05:23:30.043Z,4.90
2018-10-09T05:24:29.676Z,4.40
2018-10-09T05:25:29.697Z,5.30
2018-10-09T05:26:29.609Z,4.70
2018-10-09T05:27:29.610Z,4.10
2018-10-09T05:28:29.551Z,4.80
2018-10-09T05:29:29.504Z,4.40
2018-10-09T05:30:29.486Z,4.90
2018-10-09T05:31:29.483Z,4.80
2018-10-09T05:32:29.419Z,5.10
2018-10-09T05:33:29.376Z,4.50
2018-10-09T05:34:29.352Z,4.50
2018-10-09T05:35:29.322Z,4.70
2018-10-09T05:36:29.278Z,4.80
2018-10-09T05:37:29.275Z,4.70
2018-10-09T05:38:29.217Z,4.20
2018-10-09T05:39:29.206Z,4.10
2018-10-09T05:40:29.168Z,4.40
2018-10-09T05:41:29.123Z,4.90
2018-10-09T05:42:29.105Z,4.80
2018-10-09T05:43:29.061Z,4.90
2018-10-09T05:44:29.117Z,4.70
2018-10-09T05:45:28.998Z,4.20
2018-10-09T05:46:28.969Z,4.80
2018-10-09T05:47:28.936Z,5.00
2018-10-09T05:48:28.901Z,4.80
2018-10-09T05:49:28.892Z,4.70
2018-10-09T05:50:28.867Z,4.60
2018-10-09T05:51:28.809Z,4.60
2018-10-09T05:52:28.790Z,4.70
2018-10-09T05:53:28.745Z,5.10
2018-10-09T05:54:28.729Z,4.90
2018-10-09T05:55:28.699Z,4.60
2018-10-09T05:56:28.651Z,5.00
2018-10-09T05:57:28.633Z,4.70
2018-10-09T05:58:28.606Z,4.90
2018-10-09T05:59:28.562Z,5.10
2018-10-09T06:00:28.697Z,4.60
2018-10-09T06:01:28.507Z,4.90
2018-10-09T06:02:28.474Z,4.40
2018-10-09T06:03:28.446Z,4.70
2018-10-09T06:04:28.412Z,5.20
2018-10-09T06:05:28.383Z,4.30
2018-10-09T06:06:28.514Z,4.70
2018-10-09T06:07:28.338Z,4.90
2018-10-09T06:08:28.270Z,4.40
2018-10-09T06:09:28.260Z,5.20
2018-10-09T06:10:28.223Z,4.30
2018-10-09T06:11:28.191Z,4.50
2018-10-09T06:12:28.157Z,4.70
2018-10-09T06:13:28.123Z,5.20
2018-10-09T06:14:28.108Z,4.80
2018-10-09T06:15:28.059Z,4.90
2018-10-09T06:16:28.014Z,4.60
2018-10-09T06:17:28.004Z,4.80
2018-10-09T06:18:27.953Z,4.70
2018-10-09T06:19:27.933Z,4.80
2018-10-09T06:20:27.888Z,4.20
2018-10-09T06:21:27.871Z,4.90
2018-10-09T06:22:27.846Z,4.70
2018-10-09T06:23:27.796Z,4.80
2018-10-09T06:24:27.780Z,5.00
2018-10-09T06:25:27.745Z,4.40
2018-10-09T06:26:27.698Z,5.00
2018-10-09T06:27:27.692Z,4.30
2018-10-09T06:28:27.713Z,4.30
2018-10-09T06:29:27.617Z,4.10
2018-10-09T06:30:27.585Z,4.80
2018-10-09T06:31:27.567Z,5.10
2018-10-09T06:32:27.539Z,4.60
2018-10-09T06:33:27.484Z,4.50
2018-10-09T06:34:27.450Z,5.00
2018-10-09T06:35:27.428Z,5.10
2018-10-09T06:36:27.393Z,4.70
2018-10-09T06:37:27.352Z,4.90
2018-10-09T06:38:27.313Z,4.40
2018-10-09T06:39:27.534Z,4.30
2018-10-09T06:40:27.285Z,4.50
2018-10-09T06:41:27.250Z,4.60
2018-10-09T06:42:27.214Z,4.70
2018-10-09T06:43:27.171Z,4.70
2018-10-09T06:44:27.140Z,4.50
2018-10-09T06:45:27.263Z,4.60
2018-10-09T06:46:27.078Z,4.80
2018-10-09T06:47:27.259Z,4.60
2018-10-09T06:48:27.047Z,4.80
2018-10-09T06:49:27.084Z,4.80
2018-10-09T06:50:26.933Z,5.00
2018-10-09T06:51:26.950Z,4.90
2018-10-09T06:52:26.871Z,4.90
2018-10-09T06:53:27.537Z,5.10
2018-10-09T06:54:26.898Z,5.10
2018-10-09T06:55:26.783Z,4.70
2018-10-09T06:56:26.747Z,4.90
2018-10-09T06:57:26.734Z,5.20
2018-10-09T06:58:26.696Z,5.30
2018-10-09T06:59:26.669Z,5.20
2018-10-09T07:00:26.621Z,4.90
2018-10-09T07:01:26.599Z,4.50
2018-10-09T07:02:26.548Z,4.90
2018-10-09T07:03:26.533Z,4.60
2018-10-09T07:04:26.503Z,4.70
2018-10-09T07:05:26.469Z,4.60
2018-10-09T07:06:26.469Z,4.50
2018-10-09T07:07:26.390Z,5.20
2018-10-09T07:08:26.594Z,5.60
2018-10-09T07:09:26.358Z,4.80
2018-10-09T07:10:26.307Z,4.60
2018-10-09T07:11:26.495Z,5.00
2018-10-09T07:12:26.240Z,4.60
2018-10-09T07:13:26.203Z,4.90
2018-10-09T07:14:26.195Z,4.90
2018-10-09T07:15:26.150Z,4.80
2018-10-09T07:16:26.367Z,4.60
2018-10-09T07:17:26.087Z,5.00
2018-10-09T07:18:26.243Z,4.80
2018-10-09T07:19:26.002Z,5.00
2018-10-09T07:20:25.971Z,4.80
2018-10-09T07:21:25.945Z,4.50
2018-10-09T07:22:25.934Z,4.80
2018-10-09T07:23:26.211Z,5.30
2018-10-09T07:24:25.854Z,4.70
2018-10-09T07:25:25.841Z,5.40
2018-10-09T07:26:25.801Z,4.70
2018-10-09T07:27:25.770Z,4.60
2018-10-09T07:28:25.734Z,5.10
2018-10-09T07:29:25.694Z,5.20
2018-10-09T07:30:25.670Z,5.10
2018-10-09T07:31:25.642Z,5.30
2018-10-09T07:32:25.628Z,4.60
2018-10-09T07:33:25.576Z,4.70
2018-10-09T07:34:25.540Z,5.40
2018-10-09T07:35:25.512Z,4.50
2018-10-09T07:36:25.514Z,5.00
2018-10-09T07:37:25.484Z,4.90
2018-10-09T07:38:25.866Z,5.50
2018-10-09T07:39:25.392Z,4.70
2018-10-09T07:40:25.361Z,4.70
2018-10-09T07:41:25.307Z,5.20
2018-10-09T07:42:25.399Z,4.40
2018-10-09T07:43:25.557Z,5.10
2018-10-09T07:44:25.221Z,4.80
2018-10-09T07:45:25.182Z,5.30
2018-10-09T07:46:25.144Z,5.20
2018-10-09T07:47:25.117Z,5.30
2018-10-09T07:48:25.401Z,4.80
2018-10-09T07:49:25.046Z,4.60
2018-10-09T07:50:25.022Z,5.00
2018-10-09T07:51:24.984Z,5.00
2018-10-09T07:52:24.968Z,4.90
2018-10-09T07:53:25.196Z,5.20
2018-10-09T07:54:24.902Z,5.40
2018-10-09T07:55:24.864Z,4.80
2018-10-09T07:56:24.823Z,5.50
2018-10-09T07:57:24.814Z,5.20
2018-10-09T07:58:24.843Z,4.70
2018-10-09T07:59:24.747Z,5.00
2018-10-09T08:00:24.709Z,4.50
2018-10-09T08:01:24.687Z,4.70
2018-10-09T08:02:24.649Z,4.70
2018-10-09T08:03:24.616Z,4.70
2018-10-09T08:04:24.579Z,4.80
2018-10-09T08:05:24.539Z,4.80
2018-10-09T08:06:24.522Z,4.80
2018-10-09T08:07:24.497Z,5.00
2018-10-09T08:08:24.609Z,5.20
2018-10-09T08:09:24.451Z,5.20
2018-10-09T08:10:24.743Z,4.60
2018-10-09T08:11:24.375Z,4.80
2018-10-09T08:12:24.337Z,5.10
2018-10-09T08:13:24.287Z,4.90
2018-10-09T08:14:24.247Z,5.00
2018-10-09T08:15:24.422Z,4.70
2018-10-09T08:16:24.254Z,5.10
2018-10-09T08:17:24.187Z,4.70
2018-10-09T08:18:24.121Z,5.00
2018-10-09T08:19:24.122Z,4.90
2018-10-09T08:20:24.259Z,5.40
2018-10-09T08:21:24.040Z,4.90
2018-10-09T08:22:24.028Z,4.30
2018-10-09T08:23:23.960Z,4.80
2018-10-09T08:24:23.947Z,5.00
2018-10-09T08:25:24.218Z,5.20
2018-10-09T08:26:23.890Z,5.10
2018-10-09T08:27:23.906Z,5.00
2018-10-09T08:28:23.814Z,5.00
2018-10-09T08:29:23.780Z,5.30
2018-10-09T08:30:23.754Z,5.10
2018-10-09T08:31:23.713Z,4.90
2018-10-09T08:32:23.776Z,5.10
2018-10-09T08:33:23.681Z,5.00
2018-10-09T08:34:23.675Z,4.60
2018-10-09T08:35:23.594Z,5.00
2018-10-09T08:36:23.562Z,4.80
2018-10-09T08:37:23.522Z,5.50
2018-10-09T08:38:23.491Z,5.00
2018-10-09T08:39:23.453Z,4.80
2018-10-09T08:40:23.672Z,4.90
2018-10-09T08:41:23.482Z,4.90
2018-10-09T08:42:23.372Z,4.90
2018-10-09T08:43:23.318Z,4.80
2018-10-09T08:44:23.313Z,4.70
2018-10-09T08:45:23.471Z,4.80
2018-10-09T08:46:23.353Z,4.90
2018-10-09T08:47:23.225Z,5.00
2018-10-09T08:48:23.173Z,5.00
2018-10-09T08:49:23.129Z,4.10
2018-10-09T08:50:23.269Z,4.90
2018-10-09T08:51:23.078Z,4.60
2018-10-09T08:52:23.054Z,5.00
2018-10-09T08:53:22.998Z,4.80
2018-10-09T08:54:23.131Z,4.90
2018-10-09T08:55:22.955Z,4.60
2018-10-09T08:56:22.909Z,4.90
2018-10-09T08:57:22.905Z,5.40
2018-10-09T08:58:22.841Z,5.30
2018-10-09T08:59:23.014Z,5.00
2018-10-09T09:00:22.789Z,4.60
2018-10-09T09:01:22.759Z,4.60
2018-10-09T09:02:22.729Z,4.40
2018-10-09T09:03:22.690Z,5.30
2018-10-09T09:04:22.641Z,5.00
2018-10-09T09:05:22.632Z,5.70
2018-10-09T09:06:22.605Z,4.40
2018-10-09T09:07:22.545Z,4.70
2018-10-09T09:08:22.549Z,5.30
2018-10-09T09:09:22.637Z,4.60
2018-10-09T09:10:22.470Z,4.80
2018-10-09T09:11:22.450Z,4.90
2018-10-09T09:12:22.390Z,4.70
2018-10-09T09:13:22.352Z,4.90
2018-10-09T09:14:22.358Z,5.50
2018-10-09T09:15:22.665Z,5.10
2018-10-09T09:16:22.265Z,5.50
2018-10-09T09:17:22.224Z,4.50
2018-10-09T09:18:22.194Z,4.20
2018-10-09T09:19:22.173Z,4.70
2018-10-09T09:20:22.161Z,5.00
2018-10-09T09:21:22.284Z,5.00
2018-10-09T09:22:22.077Z,4.80
2018-10-09T09:23:22.034Z,4.40
2018-10-09T09:24:22.016Z,4.40
2018-10-09T09:25:21.989Z,4.50
2018-10-09T09:26:21.971Z,4.80
2018-10-09T09:27:21.965Z,4.30
2018-10-09T09:28:21.905Z,4.10
2018-10-09T09:29:21.859Z,4.40
2018-10-09T09:30:21.813Z,4.60
2018-10-09T09:31:21.775Z,4.90
2018-10-09T09:32:21.760Z,4.50
2018-10-09T09:33:21.715Z,4.60
2018-10-09T09:34:21.680Z,4.40
2018-10-09T09:35:21.659Z,4.30
2018-10-09T09:36:21.610Z,4.90
2018-10-09T09:37:21.729Z,4.30
2018-10-09T09:38:21.573Z,4.90
2018-10-09T09:39:21.537Z,4.20
2018-10-09T09:40:21.480Z,4.00
2018-10-09T09:41:21.449Z,5.00
2018-10-09T09:42:21.437Z,4.70
2018-10-09T09:43:21.501Z,5.00
2018-10-09T09:44:21.353Z,4.80
2018-10-09T09:45:21.328Z,5.50
2018-10-09T09:46:21.361Z,5.00
2018-10-09T09:47:21.277Z,4.70
2018-10-09T09:48:21.260Z,5.00
2018-10-09T09:49:21.217Z,4.90
2018-10-09T09:50:21.158Z,4.50
2018-10-09T09:51:21.132Z,4.40
2018-10-09T09:52:21.104Z,5.10
2018-10-09T09:53:21.086Z,4.80
2018-10-09T09:54:21.050Z,5.20
2018-10-09T09:55:20.998Z,4.80
2018-10-09T09:56:20.967Z,4.70
2018-10-09T09:57:20.933Z,5.10
2018-10-09T09:58:21.021Z,4.80
2018-10-09T09:59:20.986Z,5.30
2018-10-09T10:00:20.862Z,5.10
2018-10-09T10:01:20.809Z,4.60
2018-10-09T10:02:20.821Z,4.80
2018-10-09T10:03:20.764Z,4.90
2018-10-09T10:04:20.729Z,5.10
2018-10-09T10:05:20.682Z,5.10
2018-10-09T10:06:20.662Z,4.90
2018-10-09T10:07:20.629Z,5.10
2018-10-09T10:08:20.596Z,5.70
2018-10-09T10:10:20.569Z,5.20
2018-10-09T10:11:20.499Z,5.60
2018-10-09T10:12:20.461Z,6.70
2018-10-09T10:13:20.461Z,6.30
2018-10-09T10:14:20.403Z,6.40
2018-10-09T10:15:20.592Z,5.90
2018-10-09T10:16:20.327Z,6.40
2018-10-09T10:17:20.296Z,6.40
2018-10-09T10:18:20.261Z,6.00
2018-10-09T10:19:20.236Z,6.30
2018-10-09T10:20:20.266Z,5.90
2018-10-09T10:21:20.249Z,5.90
2018-10-09T10:22:20.150Z,5.90
2018-10-09T10:23:20.133Z,5.70
2018-10-09T10:24:20.104Z,5.90
2018-10-09T10:25:20.038Z,4.80
2018-10-09T10:26:20.024Z,5.20
2018-10-09T10:27:19.986Z,6.20
2018-10-09T10:28:19.955Z,5.90
2018-10-09T10:29:19.975Z,5.90
2018-10-09T10:30:19.901Z,5.10
2018-10-09T10:31:19.849Z,5.20
2018-10-09T10:32:19.833Z,4.90
2018-10-09T10:33:19.823Z,5.40
2018-10-09T10:34:19.760Z,4.80
2018-10-09T10:35:19.736Z,4.60
2018-10-09T10:36:19.731Z,5.10
2018-10-09T10:37:19.709Z,5.20
2018-10-09T10:38:19.649Z,6.20
2018-10-09T10:39:19.594Z,7.20
2018-10-09T10:40:19.577Z,9.30
2018-10-09T10:41:19.696Z,7.80
2018-10-09T10:42:19.526Z,7.40
2018-10-09T10:43:19.500Z,5.60
2018-10-09T10:44:19.469Z,5.00
2018-10-09T10:45:19.408Z,5.70
2018-10-09T10:46:19.404Z,5.40
2018-10-09T10:47:19.343Z,5.30
2018-10-09T10:48:19.328Z,4.70
2018-10-09T10:49:19.305Z,4.70
2018-10-09T10:50:19.293Z,5.30
2018-10-09T10:51:19.241Z,4.70
2018-10-09T10:52:19.217Z,4.40
2018-10-09T10:53:19.181Z,4.30
2018-10-09T10:54:19.168Z,4.30
2018-10-09T10:55:19.117Z,4.40
2018-10-09T10:56:19.080Z,4.60
2018-10-09T10:57:19.044Z,4.90
2018-10-09T10:58:19.014Z,4.90
2018-10-09T10:59:19.016Z,4.20
2018-10-09T11:00:18.952Z,4.70
2018-10-09T11:01:18.930Z,4.40
2018-10-09T11:02:18.905Z,4.70
2018-10-09T11:03:18.845Z,4.20
2018-10-09T11:04:18.813Z,4.30
2018-10-09T11:05:18.811Z,4.60
2018-10-09T11:06:18.777Z,5.10
2018-10-09T11:07:18.742Z,4.50
2018-10-09T11:08:18.725Z,4.30
2018-10-09T11:09:18.685Z,5.30
2018-10-09T11:10:18.643Z,6.80
2018-10-09T11:11:18.613Z,14.50
2018-10-09T11:12:18.576Z,23.80
2018-10-09T11:13:18.547Z,31.90
2018-10-09T11:14:18.530Z,28.20
2018-10-09T11:15:18.496Z,21.00
2018-10-09T11:16:18.457Z,16.50
2018-10-09T11:17:18.420Z,13.10
2018-10-09T11:18:18.397Z,9.30
2018-10-09T11:19:18.367Z,9.20
2018-10-09T11:20:18.333Z,7.60
2018-10-09T11:21:18.437Z,6.60
2018-10-09T11:22:18.271Z,6.60
2018-10-09T11:23:18.254Z,6.00
2018-10-09T11:24:18.352Z,6.40
2018-10-09T11:25:18.166Z,6.50
2018-10-09T11:26:18.159Z,6.00
2018-10-09T11:27:18.106Z,5.70
2018-10-09T11:28:18.087Z,5.80
2018-10-09T11:29:18.081Z,5.90
2018-10-09T11:30:18.025Z,5.30
2018-10-09T11:31:17.999Z,6.20
2018-10-09T11:32:17.994Z,6.40
2018-10-09T11:33:17.923Z,5.30
2018-10-09T11:34:17.893Z,5.10
2018-10-09T11:35:17.886Z,5.10
2018-10-09T11:36:17.862Z,4.60
2018-10-09T11:37:17.812Z,4.40
2018-10-09T11:38:17.792Z,4.20
2018-10-09T11:39:17.739Z,4.00
2018-10-09T11:40:17.763Z,4.30
2018-10-09T11:41:17.692Z,3.90
2018-10-09T11:42:17.672Z,4.50
2018-10-09T11:43:17.652Z,3.90
2018-10-09T11:44:17.590Z,3.90
2018-10-09T11:45:17.703Z,3.50
2018-10-09T11:46:17.542Z,3.90
2018-10-09T11:47:17.560Z,3.10
2018-10-09T11:48:17.944Z,3.60
2018-10-09T11:49:17.450Z,3.60
2018-10-09T11:50:17.417Z,3.90
2018-10-09T11:51:17.588Z,3.30
2018-10-09T11:52:17.361Z,3.80
2018-10-09T11:53:17.325Z,3.90
2018-10-09T11:54:17.558Z,3.80
2018-10-09T11:55:17.269Z,3.60
2018-10-09T11:56:17.223Z,3.20
2018-10-09T11:57:17.204Z,3.30
2018-10-09T11:58:17.187Z,4.00
2018-10-09T11:59:17.166Z,3.90
2018-10-09T12:00:17.123Z,3.40
2018-10-09T12:01:17.074Z,3.90
2018-10-09T12:02:17.062Z,4.00
2018-10-09T12:03:17.025Z,3.40
2018-10-09T12:04:17.037Z,4.30
2018-10-09T12:05:16.955Z,3.40
2018-10-09T12:06:16.959Z,3.80
2018-10-09T12:07:16.901Z,3.50
2018-10-09T12:08:16.880Z,3.80
2018-10-09T12:09:17.039Z,3.30
2018-10-09T12:10:16.851Z,3.20
2018-10-09T12:11:16.791Z,3.30
2018-10-09T12:12:16.801Z,3.40
2018-10-09T12:13:16.715Z,3.60
2018-10-09T12:14:16.700Z,4.00
2018-10-09T12:15:16.675Z,3.70
2018-10-09T12:16:16.641Z,3.60
2018-10-09T12:17:16.614Z,4.80
2018-10-09T12:18:16.595Z,3.60
2018-10-09T12:19:16.552Z,3.70
2018-10-09T12:20:16.513Z,4.00
2018-10-09T12:21:16.558Z,4.20
2018-10-09T12:22:16.474Z,3.50
2018-10-09T12:23:16.458Z,3.60
2018-10-09T12:24:16.407Z,3.40
2018-10-09T12:25:16.361Z,3.50
2018-10-09T12:26:16.404Z,3.50
2018-10-09T12:27:16.307Z,3.40
2018-10-09T12:28:16.297Z,3.40
2018-10-09T12:29:16.250Z,3.60
2018-10-09T12:30:16.254Z,3.50
2018-10-09T12:31:16.214Z,3.40
2018-10-09T12:32:16.180Z,2.90
2018-10-09T12:33:16.137Z,3.10
2018-10-09T12:34:16.115Z,3.60
2018-10-09T12:35:16.074Z,3.90
2018-10-09T12:36:16.052Z,3.20
2018-10-09T12:37:16.008Z,3.80
2018-10-09T12:38:16.051Z,3.10
2018-10-09T12:39:15.976Z,2.80
2018-10-09T12:40:15.950Z,3.60
2018-10-09T12:41:15.901Z,3.40
2018-10-09T12:42:15.940Z,3.50
2018-10-09T12:43:15.850Z,2.80
2018-10-09T12:44:15.991Z,4.00
2018-10-09T12:45:15.807Z,3.40
2018-10-09T12:46:15.756Z,3.70
2018-10-09T12:47:15.758Z,3.40
2018-10-09T12:48:15.709Z,3.30
2018-10-09T12:49:15.679Z,3.60
2018-10-09T12:50:15.648Z,3.30
2018-10-09T12:51:15.610Z,3.00
2018-10-09T12:52:15.614Z,3.30
2018-10-09T12:53:15.550Z,2.80
2018-10-09T12:54:15.544Z,3.10
2018-10-09T12:55:15.493Z,3.10
2018-10-09T12:56:15.840Z,2.60
2018-10-09T12:57:15.511Z,2.20
2018-10-09T12:58:15.423Z,2.70
2018-10-09T12:59:15.381Z,2.20
2018-10-09T13:00:15.354Z,2.80
2018-10-09T13:01:15.320Z,2.60
2018-10-09T13:02:15.308Z,2.50
2018-10-09T13:03:15.387Z,2.70
2018-10-09T13:04:15.229Z,2.80
2018-10-09T13:05:15.204Z,3.00
2018-10-09T13:06:15.175Z,2.90
2018-10-09T13:07:15.163Z,2.40
2018-10-09T13:08:15.138Z,2.90
2018-10-09T13:09:15.089Z,2.90
2018-10-09T13:10:15.070Z,2.50
2018-10-09T13:11:15.051Z,2.70
2018-10-09T13:12:15.019Z,3.10
2018-10-09T13:13:15.000Z,2.90
2018-10-09T13:14:14.978Z,3.00
2018-10-09T13:15:14.923Z,2.60
2018-10-09T13:16:14.904Z,2.50
2018-10-09T13:17:14.921Z,2.50
2018-10-09T13:18:14.856Z,2.50
2018-10-09T13:19:14.824Z,3.20
2018-10-09T13:20:14.792Z,2.70
2018-10-09T13:21:14.826Z,2.60